Time;durP1;ratioP1;P1;durP2;ratioP2;P2;SDS_P1;SDS_P2;PMS_P1;PMS_P2;Temp;Humidity;BMP_temperature;BMP_pressure;BME280_temperature;BME280_humidity;BME280_pressure;Samples;Min_cycle;Max_cycle;Signal;HPM_P1;HPM_P2
2022/09/19 00:00:42;;;;;;;0.80;0.80;;;9.40;99.90;;;;;;5033132;28;20476;-65
2022/09/19 00:03:09;;;;;;;0.77;0.70;;;9.30;99.90;;;;;;5032487;28;20869;-64
2022/09/19 00:05:39;;;;;;;1.03;0.93;;;9.30;99.90;;;;;;5032783;28;20953;-64
2022/09/19 00:08:06;;;;;;;0.80;0.80;;;9.20;99.90;;;;;;5032777;28;20464;-64
2022/09/19 00:10:39;;;;;;;1.30;0.80;;;9.20;99.90;;;;;;5032793;28;20440;-65
2022/09/19 00:13:07;;;;;;;0.90;0.60;;;9.10;99.90;;;;;;5032176;28;20468;-64
2022/09/19 00:15:34;;;;;;;0.70;0.50;;;9.10;99.90;;;;;;5032749;28;20445;-64
2022/09/19 00:18:01;;;;;;;0.80;0.60;;;9.00;99.90;;;;;;5032749;28;20452;-65
2022/09/19 00:20:28;;;;;;;1.37;0.87;;;8.90;99.90;;;;;;5032887;28;20449;-66
2022/09/19 00:25:35;;;;;;;0.70;0.67;;;8.80;99.90;;;;;;5032302;28;20424;-63
2022/09/19 00:28:03;;;;;;;1.53;0.77;;;8.70;99.90;;;;;;5032736;28;20464;-66
2022/09/19 00:30:30;;;;;;;1.70;0.87;;;8.60;99.90;;;;;;5032353;28;20447;-65
2022/09/19 00:32:57;;;;;;;0.80;0.70;;;8.50;99.90;;;;;;5032045;28;20465;-65
2022/09/19 00:35:24;;;;;;;0.60;0.50;;;8.50;99.90;;;;;;5032294;28;20523;-65
2022/09/19 00:37:51;;;;;;;0.60;0.40;;;8.40;99.90;;;;;;5032157;28;20444;-65
2022/09/19 00:40:18;;;;;;;0.90;0.67;;;8.30;99.90;;;;;;5032127;28;20973;-65
2022/09/19 00:42:45;;;;;;;0.90;0.70;;;8.30;99.90;;;;;;5031867;28;20872;-65
2022/09/19 00:45:16;;;;;;;0.90;0.67;;;8.30;99.90;;;;;;5032173;28;20449;-66
2022/09/19 00:47:46;;;;;;;0.60;0.50;;;8.20;99.90;;;;;;5032174;28;20487;-64
2022/09/19 00:50:21;;;;;;;1.20;0.63;;;8.20;99.90;;;;;;5031924;28;20456;-64
2022/09/19 00:52:51;;;;;;;0.73;0.60;;;8.10;99.90;;;;;;5031986;28;20464;-65
2022/09/19 00:55:18;;;;;;;0.93;0.70;;;8.10;99.90;;;;;;5032131;28;20827;-65
2022/09/19 00:58:06;;;;;;;1.30;0.60;;;8.10;99.90;;;;;;5032112;28;20476;-65
2022/09/19 01:00:35;;;;;;;0.73;0.60;;;8.00;99.90;;;;;;5031815;28;20449;-65
2022/09/19 01:03:02;;;;;;;0.80;0.70;;;8.00;99.90;;;;;;5030643;28;20503;-65
2022/09/19 01:05:49;;;;;;;0.80;0.60;;;8.00;99.90;;;;;;5031900;28;20863;-66
2022/09/19 01:08:53;;;;;;;0.83;0.60;;;8.00;99.90;;;;;;5031780;28;20492;-65
2022/09/19 01:11:57;;;;;;;1.77;0.80;;;7.90;99.90;;;;;;5031641;28;20445;-65
2022/09/19 01:14:37;;;;;;;2.93;0.60;;;7.90;99.90;;;;;;5006831;28;20457;-65
2022/09/19 01:17:15;;;;;;;0.60;0.50;;;7.90;99.90;;;;;;5031529;28;20440;-65
2022/09/19 01:20:07;;;;;;;1.63;0.70;;;7.90;99.90;;;;;;5031515;28;20539;-65
2022/09/19 01:22:45;;;;;;;0.77;0.57;;;7.90;99.90;;;;;;5031097;28;20489;-65
2022/09/19 01:25:23;;;;;;;1.90;0.67;;;7.80;99.90;;;;;;5031402;28;20961;-65
2022/09/19 01:28:06;;;;;;;0.60;0.50;;;7.80;99.90;;;;;;5031183;28;20539;-65
2022/09/19 01:30:35;;;;;;;1.47;0.60;;;7.80;99.90;;;;;;5031527;28;20472;-64
2022/09/19 01:33:06;;;;;;;2.47;0.60;;;7.80;99.90;;;;;;5030723;28;20461;-66
2022/09/19 01:35:38;;;;;;;0.70;0.50;;;7.80;99.90;;;;;;5031269;28;20934;-63
2022/09/19 01:38:08;;;;;;;0.80;0.63;;;7.80;99.90;;;;;;5031148;28;20445;-65
2022/09/19 01:40:37;;;;;;;0.80;0.60;;;7.90;99.90;;;;;;5031485;28;20480;-64
2022/09/19 01:43:13;;;;;;;0.90;0.80;;;7.90;99.90;;;;;;5030969;28;20497;-64
2022/09/19 01:45:40;;;;;;;1.67;0.80;;;7.90;99.90;;;;;;5031335;28;20510;-64
2022/09/19 01:48:17;;;;;;;0.70;0.60;;;7.90;99.90;;;;;;5031220;28;20459;-64
2022/09/19 01:51:03;;;;;;;1.10;0.60;;;7.80;99.90;;;;;;5031099;28;20801;-65
2022/09/19 01:53:46;;;;;;;0.70;0.60;;;7.80;99.90;;;;;;5030906;28;20476;-64
2022/09/19 01:56:24;;;;;;;3.03;0.80;;;7.80;99.90;;;;;;5030908;28;20535;-65
2022/09/19 01:58:59;;;;;;;0.80;0.80;;;7.80;99.90;;;;;;5030801;28;20518;-65
2022/09/19 02:01:30;;;;;;;1.47;0.80;;;7.70;99.90;;;;;;5030752;28;20819;-64
2022/09/19 02:04:05;;;;;;;2.50;0.90;;;7.70;99.90;;;;;;5030486;28;20478;-65
2022/09/19 02:06:42;;;;;;;1.17;0.80;;;7.70;99.90;;;;;;5030855;28;20459;-65
2022/09/19 02:09:17;;;;;;;0.93;0.73;;;7.70;99.90;;;;;;5030644;28;21035;-65
2022/09/19 02:11:44;;;;;;;0.90;0.70;;;7.80;99.90;;;;;;5030558;28;20445;-65
2022/09/19 02:14:17;;;;;;;2.40;1.23;;;7.70;99.90;;;;;;5030313;28;20476;-66
2022/09/19 02:16:50;;;;;;;1.03;0.93;;;7.80;99.90;;;;;;5030607;28;20445;-66
2022/09/19 02:19:22;;;;;;;2.90;1.20;;;7.80;99.90;;;;;;5030515;28;20827;-65
2022/09/19 02:21:54;;;;;;;0.90;0.80;;;7.80;99.90;;;;;;5029906;28;20507;-66
2022/09/19 02:24:27;;;;;;;1.17;0.93;;;7.80;99.90;;;;;;5030527;28;20453;-65
2022/09/19 02:26:59;;;;;;;2.40;1.10;;;7.80;99.90;;;;;;5030323;28;20480;-64
2022/09/19 02:29:32;;;;;;;1.07;0.97;;;7.80;99.90;;;;;;5030175;28;20455;-64
2022/09/19 02:32:00;;;;;;;2.73;1.13;;;7.80;99.90;;;;;;5029831;28;20510;-65
2022/09/19 02:34:27;;;;;;;1.73;1.17;;;7.80;99.90;;;;;;5030034;28;20506;-64
2022/09/19 02:37:00;;;;;;;1.30;1.20;;;7.80;99.90;;;;;;5030268;28;20456;-64
2022/09/19 02:39:30;;;;;;;4.13;1.00;;;7.90;99.90;;;;;;5030159;28;20471;-64
2022/09/19 02:42:03;;;;;;;1.57;1.27;;;7.90;99.90;;;;;;5029557;28;21020;-64
2022/09/19 02:44:40;;;;;;;1.70;1.20;;;7.90;99.90;;;;;;5029940;28;20503;-65
2022/09/19 02:47:15;;;;;;;1.07;0.97;;;8.00;99.90;;;;;;5030374;28;20456;-66
2022/09/19 02:49:48;;;;;;;1.10;1.00;;;8.00;99.90;;;;;;5030112;28;20452;-65
2022/09/19 02:52:19;;;;;;;1.73;1.20;;;8.00;99.90;;;;;;5029616;28;20856;-65
2022/09/19 02:54:52;;;;;;;1.20;1.10;;;8.00;99.90;;;;;;5029957;28;20954;-64
2022/09/19 02:57:22;;;;;;;1.17;1.07;;;8.00;99.90;;;;;;5029937;28;20903;-65
2022/09/19 02:59:52;;;;;;;1.47;1.10;;;8.00;99.90;;;;;;5029551;28;20926;-64
2022/09/19 03:02:23;;;;;;;1.10;0.83;;;8.00;99.90;;;;;;5029464;28;20491;-64
2022/09/19 03:04:54;;;;;;;3.10;1.30;;;8.00;99.90;;;;;;5029697;28;20923;-66
2022/09/19 03:07:25;;;;;;;3.83;1.73;;;7.90;99.90;;;;;;5029637;28;20455;-64
2022/09/19 03:09:59;;;;;;;2.63;1.00;;;7.90;99.90;;;;;;5029681;28;21103;-66
2022/09/19 03:12:30;;;;;;;2.17;1.80;;;8.00;99.90;;;;;;5029451;28;20480;-64
2022/09/19 03:14:58;;;;;;;1.10;0.93;;;8.00;99.90;;;;;;5029612;28;20457;-65
2022/09/19 03:17:31;;;;;;;3.63;1.27;;;8.10;99.90;;;;;;5029710;28;20456;-65
2022/09/19 03:19:58;;;;;;;1.83;1.20;;;8.10;99.90;;;;;;5029734;28;20460;-65
2022/09/19 03:22:25;;;;;;;2.73;1.00;;;8.10;99.90;;;;;;5029042;28;20488;-65
2022/09/19 03:24:52;;;;;;;4.87;2.90;;;8.20;99.90;;;;;;5029727;28;20452;-65
2022/09/19 03:27:19;;;;;;;2.20;0.90;;;8.20;99.90;;;;;;5033508;28;20456;-66
2022/09/19 03:29:46;;;;;;;2.00;1.00;;;8.20;99.90;;;;;;5033485;28;20980;-65
2022/09/19 03:32:14;;;;;;;9.10;2.00;;;8.30;99.90;;;;;;5033081;28;20474;-64
2022/09/19 03:34:41;;;;;;;3.07;1.13;;;8.30;99.90;;;;;;5033547;28;20453;-65
2022/09/19 03:37:08;;;;;;;3.77;1.43;;;8.30;99.90;;;;;;5033904;28;20548;-65
2022/09/19 03:39:34;;;;;;;2.60;1.20;;;8.40;99.90;;;;;;5033741;28;20943;-64
2022/09/19 03:42:01;;;;;;;1.60;0.87;;;8.40;99.90;;;;;;5033030;28;20455;-64
2022/09/19 03:44:28;;;;;;;2.70;1.20;;;8.40;99.90;;;;;;5033505;28;20455;-64
2022/09/19 03:46:55;;;;;;;2.80;1.30;;;8.50;99.90;;;;;;5033308;28;20449;-63
2022/09/19 03:49:23;;;;;;;5.33;1.00;;;8.50;99.90;;;;;;5033153;28;20495;-64
2022/09/19 03:51:50;;;;;;;2.90;1.10;;;8.60;99.90;;;;;;5033068;28;20458;-64
2022/09/19 03:54:17;;;;;;;3.43;1.20;;;8.60;99.90;;;;;;5033579;28;20444;-64
2022/09/19 03:56:43;;;;;;;2.60;1.30;;;8.60;99.90;;;;;;5033511;28;20448;-65
2022/09/19 03:59:10;;;;;;;4.90;0.90;;;8.70;99.90;;;;;;5033040;28;20445;-64
2022/09/19 04:01:37;;;;;;;1.30;1.07;;;8.70;99.90;;;;;;5033119;28;20449;-64
2022/09/19 04:04:05;;;;;;;3.73;1.30;;;8.70;99.90;;;;;;5032447;28;20499;-64
2022/09/19 04:06:34;;;;;;;6.80;1.20;;;8.70;99.90;;;;;;5032830;28;20915;-65
2022/09/19 04:09:01;;;;;;;3.73;1.33;;;8.80;99.90;;;;;;5033039;28;20498;-64
2022/09/19 04:11:29;;;;;;;2.27;1.13;;;8.80;99.90;;;;;;5032798;28;20476;-65
2022/09/19 04:13:56;;;;;;;2.50;1.20;;;8.90;99.90;;;;;;5032234;28;20480;-64
2022/09/19 04:16:23;;;;;;;3.00;1.20;;;8.90;99.90;;;;;;5032644;28;20460;-65
2022/09/19 04:18:52;;;;;;;3.00;1.37;;;8.90;99.90;;;;;;5032530;28;20456;-65
2022/09/19 04:21:19;;;;;;;5.37;2.50;;;8.90;99.90;;;;;;5032593;28;20988;-65
2022/09/19 04:23:47;;;;;;;2.83;1.37;;;9.00;99.90;;;;;;5032259;28;20521;-65
2022/09/19 04:26:14;;;;;;;2.33;1.33;;;8.90;99.90;;;;;;5032520;28;20817;-65
2022/09/19 04:28:41;;;;;;;2.40;1.37;;;8.90;99.90;;;;;;5032367;28;20457;-65
2022/09/19 04:31:09;;;;;;;2.10;1.00;;;8.90;99.90;;;;;;5032093;28;20831;-64
2022/09/19 04:33:37;;;;;;;5.20;1.80;;;8.90;99.90;;;;;;5032080;28;20464;-65
2022/09/19 04:36:05;;;;;;;3.63;1.37;;;9.00;99.90;;;;;;5032389;28;20449;-65
2022/09/19 04:38:33;;;;;;;5.77;3.43;;;9.00;99.90;;;;;;5028973;28;20461;-63
2022/09/19 04:41:01;;;;;;;5.70;1.10;;;9.00;99.90;;;;;;5037515;28;20821;-64
2022/09/19 04:43:29;;;;;;;5.50;1.43;;;9.00;99.90;;;;;;5025495;28;20480;-65
2022/09/19 04:45:56;;;;;;;2.00;1.13;;;9.00;99.90;;;;;;5031140;28;20451;-66
2022/09/19 04:48:24;;;;;;;2.27;1.67;;;9.00;99.90;;;;;;5038607;28;20448;-65
2022/09/19 04:50:53;;;;;;;5.43;1.50;;;9.00;99.90;;;;;;5034718;28;20450;-65
2022/09/19 04:53:23;;;;;;;4.20;1.30;;;9.00;99.90;;;;;;5027785;28;20558;-64
2022/09/19 04:55:50;;;;;;;4.93;1.30;;;9.00;99.90;;;;;;5031558;28;20503;-64
2022/09/19 04:58:19;;;;;;;7.83;2.17;;;9.00;99.90;;;;;;5031565;28;20445;-65
2022/09/19 05:00:50;;;;;;;5.33;1.20;;;9.00;99.90;;;;;;5031529;28;20969;-64
2022/09/19 05:03:19;;;;;;;4.93;1.87;;;9.00;99.90;;;;;;5019923;28;20884;-63
2022/09/19 05:05:50;;;;;;;5.60;1.33;;;9.10;99.90;;;;;;5022309;28;20449;-64
2022/09/19 05:08:19;;;;;;;3.57;1.30;;;9.10;99.90;;;;;;5025433;28;20459;-64
2022/09/19 05:10:47;;;;;;;4.87;1.67;;;9.10;99.90;;;;;;5025569;28;20452;-64
2022/09/19 05:13:13;;;;;;;5.10;1.57;;;9.10;99.90;;;;;;5034008;28;20518;-66
2022/09/19 05:15:43;;;;;;;4.10;1.20;;;9.20;99.90;;;;;;5029532;28;20953;-64
2022/09/19 05:18:11;;;;;;;2.30;1.13;;;9.20;99.90;;;;;;5036936;28;20463;-64
2022/09/19 05:20:39;;;;;;;3.73;1.20;;;9.20;99.90;;;;;;5048649;28;20447;-64
2022/09/19 05:23:06;;;;;;;3.73;1.40;;;9.30;99.90;;;;;;5050224;28;20480;-65
2022/09/19 05:25:37;;;;;;;3.17;1.13;;;9.40;99.90;;;;;;5051438;28;20462;-65
2022/09/19 05:28:06;;;;;;;3.30;1.70;;;9.40;99.90;;;;;;5051357;28;20447;-64
2022/09/19 05:30:33;;;;;;;5.40;1.70;;;9.40;99.90;;;;;;5051392;28;20451;-65
2022/09/19 05:33:02;;;;;;;4.90;1.50;;;9.50;99.90;;;;;;5050023;28;20833;-65
2022/09/19 05:35:29;;;;;;;6.90;1.63;;;9.50;99.90;;;;;;5050499;28;20904;-65
2022/09/19 05:37:57;;;;;;;5.77;1.73;;;9.50;99.90;;;;;;5050391;28;20454;-65
2022/09/19 05:40:24;;;;;;;10.67;2.60;;;9.60;99.90;;;;;;5050707;28;20456;-65
2022/09/19 05:42:51;;;;;;;7.13;1.57;;;9.60;99.90;;;;;;5050158;28;20490;-66
2022/09/19 05:45:20;;;;;;;4.60;1.60;;;9.60;99.90;;;;;;5050348;28;21019;-65
2022/09/19 05:47:49;;;;;;;5.40;1.47;;;9.70;99.90;;;;;;5050524;28;20961;-65
2022/09/19 05:50:17;;;;;;;5.07;1.70;;;9.70;99.90;;;;;;5041024;28;20826;-65
2022/09/19 05:55:29;;;;;;;6.93;1.90;;;9.80;99.90;;;;;;5015989;28;20420;-66
2022/09/19 05:57:57;;;;;;;4.90;1.30;;;9.80;99.90;;;;;;5031772;28;20463;-66
2022/09/19 06:00:26;;;;;;;5.90;1.60;;;9.90;99.90;;;;;;5031212;28;20460;-66
2022/09/19 06:02:54;;;;;;;4.60;1.60;;;9.90;99.90;;;;;;5030340;28;20484;-66
2022/09/19 06:05:23;;;;;;;8.50;2.50;;;10.00;99.90;;;;;;5030834;28;20876;-66
2022/09/19 06:07:50;;;;;;;2.60;1.40;;;10.00;99.90;;;;;;5030828;28;20453;-65
2022/09/19 06:10:17;;;;;;;4.90;1.43;;;10.00;99.90;;;;;;5030650;28;20452;-66
2022/09/19 06:12:44;;;;;;;6.27;1.93;;;10.10;99.90;;;;;;5026129;28;20717;-66
2022/09/19 06:15:12;;;;;;;6.60;1.77;;;10.10;99.90;;;;;;5020182;28;20453;-65
2022/09/19 06:17:39;;;;;;;5.40;1.57;;;10.20;99.90;;;;;;5027951;28;20472;-66
2022/09/19 06:20:06;;;;;;;7.03;1.90;;;10.30;99.90;;;;;;5028236;28;20452;-65
2022/09/19 06:22:34;;;;;;;2.83;1.30;;;10.40;99.90;;;;;;5028293;28;20465;-64
2022/09/19 06:25:01;;;;;;;3.50;2.03;;;10.40;99.90;;;;;;5029293;28;20452;-64
2022/09/19 06:27:28;;;;;;;8.23;1.33;;;10.50;99.90;;;;;;5029306;28;20870;-65
2022/09/19 06:29:55;;;;;;;3.33;1.80;;;10.50;99.90;;;;;;5029263;28;20449;-65
2022/09/19 06:32:22;;;;;;;5.87;1.57;;;10.60;99.90;;;;;;5028533;28;20511;-65
2022/09/19 06:34:49;;;;;;;3.90;1.80;;;10.60;99.90;;;;;;5029229;28;20472;-64
2022/09/19 06:37:16;;;;;;;6.00;1.93;;;10.70;99.90;;;;;;5028866;28;20455;-65
2022/09/19 06:39:44;;;;;;;4.70;1.53;;;10.70;99.90;;;;;;5028591;28;20449;-63
2022/09/19 06:42:11;;;;;;;4.60;1.57;;;10.70;99.90;;;;;;5028764;28;20472;-65
2022/09/19 06:44:38;;;;;;;6.27;2.37;;;10.70;99.90;;;;;;5028484;28;21037;-64
2022/09/19 06:47:06;;;;;;;3.80;1.80;;;10.70;99.90;;;;;;5028474;28;20441;-64
2022/09/19 06:49:32;;;;;;;6.30;2.00;;;10.70;99.90;;;;;;5028916;28;20485;-65
2022/09/19 06:51:59;;;;;;;3.53;2.97;;;10.80;99.90;;;;;;5028785;28;20445;-64
2022/09/19 06:54:26;;;;;;;3.50;2.10;;;10.90;99.90;;;;;;5028770;28;20942;-65
2022/09/19 06:56:54;;;;;;;4.30;2.00;;;10.80;99.90;;;;;;5028915;28;20456;-65
2022/09/19 06:59:21;;;;;;;5.60;1.80;;;10.80;99.90;;;;;;5028385;28;20453;-65
2022/09/19 07:01:49;;;;;;;4.07;1.70;;;10.70;99.90;;;;;;5028050;28;20860;-64
2022/09/19 07:04:16;;;;;;;6.00;1.90;;;10.80;99.90;;;;;;5028937;28;20480;-65
2022/09/19 07:06:43;;;;;;;5.93;3.33;;;10.80;99.90;;;;;;5029646;28;20457;-65
2022/09/19 07:09:09;;;;;;;3.87;2.00;;;10.80;99.90;;;;;;5029570;28;20448;-65
2022/09/19 07:11:37;;;;;;;3.07;1.60;;;10.80;99.90;;;;;;5029516;28;20452;-66
2022/09/19 07:14:05;;;;;;;4.00;1.50;;;10.90;99.90;;;;;;5029180;28;20487;-65
2022/09/19 07:16:32;;;;;;;5.10;1.70;;;10.90;99.90;;;;;;5029803;28;20459;-66
2022/09/19 07:18:59;;;;;;;7.23;2.00;;;11.00;99.90;;;;;;5029838;28;20452;-65
2022/09/19 07:21:26;;;;;;;7.13;2.60;;;11.10;99.90;;;;;;5029642;28;20455;-65
2022/09/19 07:23:54;;;;;;;3.57;2.00;;;11.10;99.90;;;;;;5028871;28;21146;-65
2022/09/19 07:26:22;;;;;;;5.50;2.47;;;11.10;99.90;;;;;;5027114;28;20837;-65
2022/09/19 07:28:49;;;;;;;9.13;3.10;;;11.10;99.90;;;;;;5029886;28;20506;-65
2022/09/19 07:31:17;;;;;;;7.53;2.63;;;11.10;99.90;;;;;;5029647;28;20452;-65
2022/09/19 07:33:44;;;;;;;5.93;1.80;;;11.10;99.90;;;;;;5029238;28;20468;-65
2022/09/19 07:36:11;;;;;;;8.27;2.20;;;11.20;99.90;;;;;;5029534;28;20514;-64
2022/09/19 07:38:38;;;;;;;3.87;1.50;;;11.20;99.90;;;;;;5029325;28;20445;-64
2022/09/19 07:41:05;;;;;;;4.90;1.60;;;11.40;99.90;;;;;;5029376;28;20482;-66
2022/09/19 07:43:32;;;;;;;8.93;4.00;;;11.60;99.90;;;;;;5029008;28;20485;-65
2022/09/19 07:45:59;;;;;;;7.30;2.70;;;11.70;99.90;;;;;;5029685;28;20548;-66
2022/09/19 07:48:27;;;;;;;5.80;2.10;;;11.80;99.90;;;;;;5029568;28;20445;-65
2022/09/19 07:50:53;;;;;;;3.87;1.50;;;11.70;99.90;;;;;;5029569;28;20445;-65
2022/09/19 07:53:22;;;;;;;3.63;1.90;;;11.70;99.90;;;;;;5028802;28;20472;-65
2022/09/19 07:55:51;;;;;;;5.87;2.23;;;11.80;99.90;;;;;;5029615;28;20503;-66
2022/09/19 07:58:19;;;;;;;4.67;1.60;;;11.90;99.90;;;;;;5029545;28;20516;-65
2022/09/19 08:00:46;;;;;;;5.83;1.70;;;11.90;99.90;;;;;;5029376;28;20445;-65
2022/09/19 08:03:15;;;;;;;10.82;2.55;;;11.90;99.90;;;;;;5028194;28;20445;-65
2022/09/19 08:05:45;;;;;;;5.73;2.07;;;12.00;99.90;;;;;;5029621;28;20214;-66
2022/09/19 08:08:14;;;;;;;3.47;1.87;;;12.10;99.90;;;;;;5029676;28;21069;-67
2022/09/19 08:10:42;;;;;;;4.60;1.93;;;12.20;99.90;;;;;;5029866;28;20660;-66
2022/09/19 08:13:13;;;;;;;5.10;2.10;;;12.20;99.90;;;;;;5032753;28;20467;-65
2022/09/19 08:15:41;;;;;;;6.67;1.90;;;12.20;99.90;;;;;;5033157;28;20544;-66
2022/09/19 08:18:13;;;;;;;4.53;2.30;;;12.20;99.90;;;;;;5026740;28;20938;-64
2022/09/19 08:20:41;;;;;;;5.47;1.73;;;12.30;99.90;;;;;;5032456;28;20797;-66
2022/09/19 08:23:11;;;;;;;8.13;1.87;;;12.40;99.90;;;;;;5043841;28;20467;-66
2022/09/19 08:25:46;;;;;;;5.80;2.07;;;12.40;99.90;;;;;;5049495;28;20964;-65
2022/09/19 08:28:13;;;;;;;5.23;2.17;;;12.40;99.90;;;;;;5050800;28;20458;-65
2022/09/19 08:30:42;;;;;;;6.07;2.33;;;12.40;99.90;;;;;;5050556;28;21002;-66
2022/09/19 08:33:09;;;;;;;4.37;2.53;;;12.40;99.90;;;;;;5050055;28;21446;-65
2022/09/19 08:35:37;;;;;;;3.30;1.60;;;12.30;99.90;;;;;;5050625;28;20459;-65
2022/09/19 08:38:06;;;;;;;8.37;2.20;;;12.30;99.90;;;;;;5050330;28;20549;-65
2022/09/19 08:40:47;;;;;;;6.93;2.37;;;12.40;99.90;;;;;;5050403;28;20452;-66
2022/09/19 08:43:17;;;;;;;9.90;2.10;;;12.50;99.90;;;;;;5050055;28;20468;-66
2022/09/19 08:46:05;;;;;;;5.77;2.83;;;12.60;99.90;;;;;;5045971;28;20455;-65
2022/09/19 08:48:43;;;;;;;3.53;1.60;;;12.70;99.90;;;;;;5028097;28;20868;-66
2022/09/19 08:51:15;;;;;;;7.03;2.13;;;12.90;99.90;;;;;;5043132;28;20440;-65
2022/09/19 08:53:45;;;;;;;8.23;2.10;;;12.90;99.90;;;;;;5048331;28;20837;-63
2022/09/19 08:56:14;;;;;;;5.60;2.20;;;12.80;99.90;;;;;;5046109;28;20829;-65
2022/09/19 08:58:47;;;;;;;8.50;2.70;;;12.80;99.90;;;;;;5046388;28;20522;-63
2022/09/19 09:01:15;;;;;;;5.93;2.37;;;12.70;99.90;;;;;;5050096;28;20454;-66
2022/09/19 09:03:51;;;;;;;4.90;1.83;;;12.70;99.90;;;;;;5049375;28;20480;-66
2022/09/19 09:06:31;;;;;;;9.43;2.57;;;12.70;99.90;;;;;;5049858;28;20482;-65
2022/09/19 09:09:04;;;;;;;10.60;2.40;;;12.70;99.90;;;;;;5049941;28;20451;-66
2022/09/19 09:11:48;;;;;;;2.90;1.63;;;12.60;99.90;;;;;;5037998;28;20458;-66
2022/09/19 09:14:25;;;;;;;6.50;3.73;;;12.40;99.90;;;;;;5049878;28;20948;-67
2022/09/19 09:17:08;;;;;;;6.43;2.57;;;12.40;99.90;;;;;;5048702;28;20451;-65
2022/09/19 09:20:08;;;;;;;9.97;2.20;;;12.30;99.90;;;;;;5041754;28;20516;-65
2022/09/19 09:22:39;;;;;;;4.00;2.30;;;12.30;99.90;;;;;;5043210;28;20551;-65
2022/09/19 09:25:13;;;;;;;8.77;3.20;;;12.30;99.90;;;;;;5048766;28;20486;-66
2022/09/19 09:27:47;;;;;;;6.33;2.33;;;12.20;99.90;;;;;;5049803;28;20471;-65
2022/09/19 09:30:18;;;;;;;5.87;3.60;;;12.30;99.90;;;;;;5049766;28;20474;-66
2022/09/19 09:32:49;;;;;;;7.97;3.20;;;12.30;99.90;;;;;;5048804;28;21019;-64
2022/09/19 09:35:26;;;;;;;9.40;3.23;;;12.20;99.90;;;;;;5049290;28;20448;-68
2022/09/19 09:37:59;;;;;;;3.47;2.00;;;12.20;99.90;;;;;;5049024;28;20454;-66
2022/09/19 09:43:25;;;;;;;4.07;2.23;;;12.30;99.90;;;;;;5048920;28;20465;-65
2022/09/19 09:45:52;;;;;;;5.77;2.43;;;12.40;99.90;;;;;;5048843;28;20860;-65
2022/09/19 09:48:26;;;;;;;6.57;3.07;;;12.40;99.90;;;;;;5038866;28;20453;-64
2022/09/19 09:51:06;;;;;;;4.70;2.90;;;12.60;99.90;;;;;;5044810;28;20448;-65
2022/09/19 09:53:50;;;;;;;4.73;2.47;;;12.70;99.90;;;;;;5048445;28;21001;-66
2022/09/19 09:56:22;;;;;;;4.40;2.10;;;12.90;99.90;;;;;;5049020;28;20455;-65
2022/09/19 09:59:04;;;;;;;5.70;2.13;;;13.30;99.90;;;;;;5048418;28;20513;-65
2022/09/19 10:04:32;;;;;;;6.40;1.80;;;13.90;99.90;;;;;;5048975;28;20988;-67
2022/09/19 10:07:10;;;;;;;5.50;2.30;;;14.20;99.90;;;;;;5048056;28;20474;-66
2022/09/19 10:09:42;;;;;;;3.93;2.60;;;14.00;99.90;;;;;;5049094;28;20514;-66
2022/09/19 10:12:18;;;;;;;3.90;1.97;;;13.80;99.90;;;;;;5048520;28;20468;-65
2022/09/19 10:14:47;;;;;;;5.63;2.10;;;14.00;99.90;;;;;;5034273;28;20466;-65
2022/09/19 10:17:19;;;;;;;6.73;2.10;;;14.20;99.90;;;;;;5028507;28;20449;-65
2022/09/19 10:19:48;;;;;;;4.87;2.10;;;14.40;99.90;;;;;;5027309;28;20544;-65
2022/09/19 10:22:17;;;;;;;15.53;3.73;;;14.40;99.90;;;;;;5034056;28;20449;-65
2022/09/19 10:24:52;;;;;;;5.07;2.10;;;14.40;99.90;;;;;;5035609;28;21170;-64
2022/09/19 10:27:23;;;;;;;2.73;1.80;;;14.70;99.90;;;;;;5048832;28;20539;-65
2022/09/19 10:30:00;;;;;;;8.00;2.00;;;15.00;99.90;;;;;;5047959;28;20448;-65
2022/09/19 10:32:37;;;;;;;2.50;1.60;;;15.20;99.90;;;;;;5048280;28;20817;-64
2022/09/19 10:35:26;;;;;;;4.70;1.63;;;15.20;99.90;;;;;;5042373;28;20440;-63
2022/09/19 10:37:54;;;;;;;9.70;2.00;;;15.20;99.90;;;;;;5048114;28;20543;-65
2022/09/19 10:40:21;;;;;;;6.20;1.80;;;15.60;99.90;;;;;;5048425;28;20553;-65
2022/09/19 10:42:48;;;;;;;3.20;1.90;;;16.20;99.90;;;;;;5046975;28;20484;-65
2022/09/19 10:45:25;;;;;;;3.23;1.57;;;17.00;99.90;;;;;;5046577;28;20577;-65
2022/09/19 10:47:55;;;;;;;6.00;1.53;;;17.20;99.90;;;;;;5038632;28;21007;-66
2022/09/19 10:50:23;;;;;;;3.70;1.83;;;17.20;99.90;;;;;;5034797;28;20453;-64
2022/09/19 10:52:51;;;;;;;4.67;1.40;;;17.10;99.90;;;;;;5044087;28;20464;-65
2022/09/19 10:55:22;;;;;;;3.90;1.50;;;17.30;99.90;;;;;;5048375;28;20494;-65
2022/09/19 10:57:59;;;;;;;2.53;1.57;;;17.60;99.90;;;;;;5047634;28;20451;-66
2022/09/19 11:00:30;;;;;;;2.40;1.57;;;17.70;99.90;;;;;;5048355;28;20456;-65
2022/09/19 11:02:59;;;;;;;3.13;1.47;;;17.90;99.90;;;;;;5047080;28;21000;-65
2022/09/19 11:05:29;;;;;;;2.70;1.27;;;17.30;99.90;;;;;;5047783;28;20491;-66
2022/09/19 11:07:56;;;;;;;5.50;1.90;;;17.00;99.90;;;;;;5047839;28;20497;-66
2022/09/19 11:10:33;;;;;;;4.07;1.80;;;16.40;99.90;;;;;;5048014;28;20458;-66
2022/09/19 11:13:06;;;;;;;3.90;1.80;;;15.90;99.90;;;;;;5043516;28;20475;-66
2022/09/19 11:15:39;;;;;;;3.70;2.43;;;15.30;99.90;;;;;;5041355;28;20455;-65
2022/09/19 11:18:16;;;;;;;4.40;1.77;;;15.00;99.90;;;;;;5041546;28;20448;-64
2022/09/19 11:20:50;;;;;;;4.20;1.70;;;15.10;99.90;;;;;;5027960;28;20448;-65
2022/09/19 11:23:42;;;;;;;6.53;2.37;;;15.30;99.90;;;;;;5025492;28;21091;-65
2022/09/19 11:26:20;;;;;;;4.37;2.13;;;15.70;99.90;;;;;;5021082;28;21026;-66
2022/09/19 11:28:57;;;;;;;4.43;1.90;;;16.10;99.90;;;;;;5025669;28;21004;-65
2022/09/19 11:31:36;;;;;;;2.87;1.90;;;16.00;99.90;;;;;;5025545;28;20452;-65
2022/09/19 11:34:11;;;;;;;4.93;2.03;;;15.80;99.90;;;;;;5025604;28;20481;-65
2022/09/19 11:36:49;;;;;;;6.57;1.80;;;15.70;99.90;;;;;;5025666;28;20443;-66
2022/09/19 11:39:20;;;;;;;3.20;1.83;;;15.70;99.90;;;;;;5026836;28;20437;-66
2022/09/19 11:42:02;;;;;;;3.80;2.00;;;15.90;99.90;;;;;;5025942;28;20437;-67
2022/09/19 11:44:52;;;;;;;3.10;1.60;;;15.80;99.90;;;;;;5026210;28;20448;-65
2022/09/19 11:47:46;;;;;;;5.47;1.80;;;15.70;99.90;;;;;;5028429;28;20701;-66
2022/09/19 11:50:39;;;;;;;4.60;1.70;;;15.40;99.90;;;;;;5029640;28;20445;-65
2022/09/19 11:53:36;;;;;;;3.67;1.57;;;15.10;99.90;;;;;;5028089;28;21229;-67
2022/09/19 11:56:26;;;;;;;5.67;1.40;;;15.10;99.90;;;;;;5017988;28;20448;-66
2022/09/19 11:58:59;;;;;;;4.87;1.77;;;14.90;99.90;;;;;;5027936;28;20457;-66
2022/09/19 12:01:37;;;;;;;3.77;1.80;;;14.90;99.90;;;;;;5029031;28;20448;-65
2022/09/19 12:04:19;;;;;;;5.87;1.80;;;15.10;99.90;;;;;;5027956;28;20464;-64
2022/09/19 12:07:10;;;;;;;7.13;2.67;;;15.40;99.90;;;;;;5027998;28;20864;-66
2022/09/19 12:09:44;;;;;;;2.50;1.60;;;15.90;99.90;;;;;;5027976;28;20451;-66
2022/09/19 12:12:13;;;;;;;5.17;1.50;;;16.30;99.90;;;;;;5028480;28;20461;-66
2022/09/19 12:14:44;;;;;;;6.30;2.10;;;16.80;99.90;;;;;;5028902;28;20958;-67
2022/09/19 12:17:16;;;;;;;4.37;1.57;;;17.60;99.90;;;;;;5028201;28;20443;-65
2022/09/19 12:19:48;;;;;;;2.40;1.37;;;18.20;99.90;;;;;;5028680;28;20452;-65
2022/09/19 12:22:19;;;;;;;3.70;1.90;;;18.00;99.90;;;;;;5028785;28;20461;-65
2022/09/19 12:24:52;;;;;;;4.03;1.30;;;17.90;99.90;;;;;;5028007;28;20935;-64
2022/09/19 12:27:27;;;;;;;3.60;1.50;;;17.60;99.90;;;;;;5029284;28;20506;-66
2022/09/19 12:30:02;;;;;;;6.40;1.63;;;17.20;99.90;;;;;;5026485;28;20452;-64
2022/09/19 12:32:41;;;;;;;3.00;1.33;;;17.00;99.90;;;;;;5027493;28;20464;-65
2022/09/19 12:35:18;;;;;;;4.60;1.73;;;17.30;99.90;;;;;;5027969;28;20520;-65
2022/09/19 12:37:54;;;;;;;2.97;1.50;;;17.40;99.90;;;;;;5027934;28;20433;-65
2022/09/19 12:40:28;;;;;;;3.63;1.90;;;17.20;99.90;;;;;;5028701;28;20847;-65
2022/09/19 12:43:03;;;;;;;4.43;1.53;;;17.10;99.90;;;;;;5026303;28;20464;-65
2022/09/19 12:45:35;;;;;;;5.10;1.93;;;17.10;99.90;;;;;;5025351;28;20484;-66
2022/09/19 12:48:10;;;;;;;10.13;2.37;;;17.30;99.90;;;;;;5025976;28;20449;-64
2022/09/19 12:50:42;;;;;;;3.33;1.47;;;17.60;99.90;;;;;;5027980;28;20539;-65
2022/09/19 12:53:25;;;;;;;6.80;2.13;;;17.70;99.90;;;;;;5027207;28;20467;-65
2022/09/19 12:56:00;;;;;;;7.37;2.80;;;17.90;99.90;;;;;;5027360;28;20444;-65
2022/09/19 12:58:32;;;;;;;4.80;1.77;;;17.90;99.90;;;;;;5027235;28;20436;-65
2022/09/19 13:01:12;;;;;;;2.80;1.30;;;18.00;99.90;;;;;;5027414;28;20445;-66
2022/09/19 13:03:43;;;;;;;3.70;1.80;;;17.70;99.90;;;;;;5027925;28;20464;-65
2022/09/19 13:06:17;;;;;;;7.67;1.30;;;17.30;99.90;;;;;;5027185;28;20477;-65
2022/09/19 13:08:50;;;;;;;3.37;1.33;;;17.00;99.90;;;;;;5027529;28;20448;-66
2022/09/19 13:11:24;;;;;;;5.30;1.90;;;17.00;99.90;;;;;;5028075;28;20453;-64
2022/09/19 13:13:56;;;;;;;5.13;1.70;;;17.80;99.90;;;;;;5026582;28;20559;-65
2022/09/19 13:16:29;;;;;;;3.00;1.10;;;19.10;99.90;;;;;;5028092;28;20441;-65
2022/09/19 13:24:38;;;;;;;2.90;1.30;;;20.30;99.90;;;;;;5026160;28;20432;-65
2022/09/19 13:27:05;;;;;;;4.63;1.30;;;19.50;99.90;;;;;;5027044;28;20546;-65
2022/09/19 13:29:47;;;;;;;4.50;1.40;;;18.80;99.90;;;;;;5027678;28;20804;-65